createdAt,value
2019-05-20T00:00:19.152Z,0.00
2019-05-20T00:01:19.164Z,0.00
2019-05-20T00:02:25.821Z,0.00
2019-05-20T00:03:20.149Z,0.00
2019-05-20T00:04:19.943Z,0.00
2019-05-20T00:05:19.112Z,0.00
2019-05-20T00:06:19.090Z,0.00
2019-05-20T00:07:19.079Z,0.00
2019-05-20T00:08:19.091Z,0.00
2019-05-20T00:09:19.058Z,0.00
2019-05-20T00:10:19.049Z,0.00
2019-05-20T00:11:19.038Z,0.00
2019-05-20T00:12:19.029Z,0.00
2019-05-20T00:13:19.837Z,0.00
2019-05-20T00:14:19.006Z,0.00
2019-05-20T00:15:18.995Z,0.00
2019-05-20T00:16:19.002Z,0.00
2019-05-20T00:17:18.973Z,0.00
2019-05-20T00:18:18.992Z,0.00
2019-05-20T00:19:18.949Z,0.00
2019-05-20T00:20:18.944Z,0.00
2019-05-20T00:21:18.932Z,0.00
2019-05-20T00:22:19.492Z,0.00
2019-05-20T00:23:18.933Z,0.00
2019-05-20T00:24:18.931Z,0.00
2019-05-20T00:25:19.558Z,0.00
2019-05-20T00:26:18.881Z,0.00
2019-05-20T00:27:18.862Z,0.00
2019-05-20T00:28:18.891Z,0.00
2019-05-20T00:29:18.847Z,0.00
2019-05-20T00:30:18.837Z,0.00
2019-05-20T00:31:18.826Z,0.00
2019-05-20T00:32:18.811Z,0.00
2019-05-20T00:33:18.806Z,0.00
2019-05-20T00:34:33.860Z,0.00
2019-05-20T00:35:20.647Z,0.00
2019-05-20T00:36:18.768Z,0.00
2019-05-20T00:37:18.758Z,0.00
2019-05-20T00:38:19.526Z,0.00
2019-05-20T00:39:18.763Z,0.00
2019-05-20T00:40:18.726Z,0.00
2019-05-20T00:41:18.723Z,0.00
2019-05-20T00:42:18.706Z,0.00
2019-05-20T00:43:18.703Z,0.00
2019-05-20T00:44:19.641Z,0.00
2019-05-20T00:45:18.674Z,0.00
2019-05-20T00:46:19.423Z,0.00
2019-05-20T00:47:18.653Z,0.00
2019-05-20T00:48:18.643Z,0.00
2019-05-20T00:49:18.661Z,0.00
2019-05-20T00:50:18.621Z,0.00
2019-05-20T00:51:18.648Z,0.00
2019-05-20T00:52:18.607Z,0.00
2019-05-20T00:53:18.592Z,0.00
2019-05-20T00:54:18.611Z,0.00
2019-05-20T00:55:18.573Z,0.00
2019-05-20T00:56:18.558Z,0.00
2019-05-20T00:57:18.547Z,0.00
2019-05-20T00:58:18.538Z,0.00
2019-05-20T00:59:18.550Z,0.00
2019-05-20T01:00:18.515Z,0.00
2019-05-20T01:01:18.508Z,0.00
2019-05-20T01:02:18.494Z,0.00
2019-05-20T01:03:18.483Z,0.00
2019-05-20T01:04:19.055Z,0.00
2019-05-20T01:05:18.496Z,0.00
2019-05-20T01:06:19.232Z,0.00
2019-05-20T01:07:18.514Z,0.00
2019-05-20T01:08:18.434Z,0.00
2019-05-20T01:09:18.453Z,0.00
2019-05-20T01:10:18.412Z,0.00
2019-05-20T01:11:18.405Z,0.00
2019-05-20T01:12:18.403Z,0.00
2019-05-20T01:13:18.413Z,0.00
2019-05-20T01:14:18.422Z,0.00
2019-05-20T01:15:18.370Z,0.00
2019-05-20T01:16:18.352Z,0.00
2019-05-20T01:17:18.340Z,0.00
2019-05-20T01:18:18.328Z,0.00
2019-05-20T01:19:18.345Z,0.00
2019-05-20T01:20:18.307Z,0.00
2019-05-20T01:21:18.298Z,0.00
2019-05-20T01:22:18.307Z,0.00
2019-05-20T01:23:18.286Z,0.00
2019-05-20T01:24:18.288Z,0.00
2019-05-20T01:25:18.256Z,0.00
2019-05-20T01:26:18.244Z,0.00
2019-05-20T01:27:18.226Z,0.00
2019-05-20T01:28:18.222Z,0.00
2019-05-20T01:29:18.256Z,0.00
2019-05-20T01:30:18.195Z,0.00
2019-05-20T01:31:18.194Z,0.00
2019-05-20T01:32:18.184Z,0.00
2019-05-20T01:33:18.163Z,0.00
2019-05-20T01:34:18.161Z,0.00
2019-05-20T01:35:18.185Z,0.00
2019-05-20T01:36:18.140Z,0.00
2019-05-20T01:37:18.121Z,0.00
2019-05-20T01:38:18.110Z,0.00
2019-05-20T01:39:18.109Z,0.00
2019-05-20T01:40:18.119Z,0.00
2019-05-20T01:41:18.223Z,0.00
2019-05-20T01:42:18.078Z,0.00
2019-05-20T01:43:18.058Z,0.00
2019-05-20T01:44:18.050Z,0.00
2019-05-20T01:45:18.066Z,0.00
2019-05-20T01:46:18.028Z,0.00
2019-05-20T01:47:18.018Z,0.00
2019-05-20T01:48:18.007Z,0.00
2019-05-20T01:49:17.995Z,0.00
2019-05-20T01:50:18.031Z,0.00
2019-05-20T01:51:17.975Z,0.00
2019-05-20T01:52:17.964Z,0.00
2019-05-20T01:53:17.952Z,0.00
2019-05-20T01:54:17.941Z,0.00
2019-05-20T01:55:17.961Z,0.00
2019-05-20T01:56:17.924Z,0.00
2019-05-20T01:57:17.924Z,0.00
2019-05-20T01:58:17.907Z,0.00
2019-05-20T01:59:17.889Z,0.00
2019-05-20T02:00:18.851Z,0.00
2019-05-20T02:01:17.901Z,0.00
2019-05-20T02:02:19.843Z,0.00
2019-05-20T02:03:30.885Z,0.00
2019-05-20T02:04:18.839Z,0.00
2019-05-20T02:05:17.869Z,0.00
2019-05-20T02:06:17.822Z,0.00
2019-05-20T02:07:17.829Z,0.00
2019-05-20T02:08:18.359Z,0.00
2019-05-20T02:09:17.780Z,0.00
2019-05-20T02:10:17.796Z,0.00
2019-05-20T02:11:17.765Z,0.00
2019-05-20T02:12:17.749Z,0.00
2019-05-20T02:13:17.743Z,0.00
2019-05-20T02:14:17.842Z,0.00
2019-05-20T02:15:17.753Z,0.00
2019-05-20T02:16:17.704Z,0.00
2019-05-20T02:17:17.726Z,0.00
2019-05-20T02:18:17.683Z,0.00
2019-05-20T02:19:17.671Z,0.00
2019-05-20T02:20:17.695Z,0.00
2019-05-20T02:21:17.654Z,0.00
2019-05-20T02:22:17.642Z,0.00
2019-05-20T02:23:17.630Z,0.00
2019-05-20T02:24:17.619Z,0.00
2019-05-20T02:25:17.638Z,0.00
2019-05-20T02:26:18.289Z,0.00
2019-05-20T02:27:17.592Z,0.00
2019-05-20T02:28:17.588Z,0.00
2019-05-20T02:29:17.582Z,0.00
2019-05-20T02:30:17.590Z,0.00
2019-05-20T02:31:17.549Z,0.00
2019-05-20T02:32:18.405Z,0.00
2019-05-20T02:33:17.528Z,0.00
2019-05-20T02:34:18.418Z,0.00
2019-05-20T02:35:17.552Z,0.00
2019-05-20T02:36:17.496Z,0.00
2019-05-20T02:37:17.483Z,0.00
2019-05-20T02:38:17.478Z,0.00
2019-05-20T02:39:17.464Z,0.00
2019-05-20T02:40:17.500Z,0.00
2019-05-20T02:41:17.442Z,0.00
2019-05-20T02:42:17.431Z,0.00
2019-05-20T02:43:17.412Z,0.00
2019-05-20T02:44:17.437Z,0.00
2019-05-20T02:45:17.427Z,0.00
2019-05-20T02:46:17.413Z,0.00
2019-05-20T02:47:17.374Z,0.00
2019-05-20T02:48:17.367Z,0.00
2019-05-20T02:49:17.368Z,0.00
2019-05-20T02:50:17.349Z,4.00
2019-05-20T02:51:17.364Z,4.00
2019-05-20T02:52:17.319Z,0.00
2019-05-20T02:53:17.308Z,4.00
2019-05-20T02:54:17.937Z,4.00
2019-05-20T02:55:17.818Z,0.00
2019-05-20T02:56:17.318Z,4.00
2019-05-20T02:57:17.267Z,4.00
2019-05-20T02:58:17.827Z,4.00
2019-05-20T02:59:17.246Z,4.00
2019-05-20T03:00:17.247Z,8.00
2019-05-20T03:01:17.264Z,4.00
2019-05-20T03:02:17.255Z,8.00
2019-05-20T03:03:17.210Z,8.00
2019-05-20T03:04:17.194Z,8.00
2019-05-20T03:05:17.203Z,8.00
2019-05-20T03:06:17.199Z,12.00
2019-05-20T03:07:17.161Z,12.00
2019-05-20T03:08:17.155Z,16.00
2019-05-20T03:09:17.140Z,16.00
2019-05-20T03:10:17.133Z,20.00
2019-05-20T03:11:17.148Z,16.00
2019-05-20T03:12:17.130Z,20.00
2019-05-20T03:13:17.100Z,24.00
2019-05-20T03:14:17.093Z,24.00
2019-05-20T03:15:17.162Z,28.00
2019-05-20T03:16:17.757Z,32.00
2019-05-20T03:17:17.058Z,32.00
2019-05-20T03:18:17.074Z,40.00
2019-05-20T03:19:17.041Z,40.00
2019-05-20T03:20:17.024Z,48.00
2019-05-20T03:21:17.974Z,52.00
2019-05-20T03:22:17.002Z,52.00
2019-05-20T03:23:16.999Z,60.00
2019-05-20T03:24:17.853Z,64.00
2019-05-20T03:25:16.997Z,68.00
2019-05-20T03:26:16.989Z,72.00
2019-05-20T03:27:16.952Z,80.00
2019-05-20T03:28:16.950Z,84.00
2019-05-20T03:29:16.921Z,88.00
2019-05-20T03:30:16.915Z,92.00
2019-05-20T03:31:16.942Z,96.00
2019-05-20T03:32:16.915Z,104.00
2019-05-20T03:33:16.904Z,108.00
2019-05-20T03:34:42.351Z,112.00
2019-05-20T03:35:17.859Z,116.00
2019-05-20T03:36:16.878Z,120.00
2019-05-20T03:37:16.858Z,124.00
2019-05-20T03:38:16.837Z,132.00
2019-05-20T03:39:16.833Z,136.00
2019-05-20T03:40:16.852Z,140.00
2019-05-20T03:41:16.851Z,144.00
2019-05-20T03:42:16.878Z,152.00
2019-05-20T03:43:16.777Z,160.00
2019-05-20T03:44:17.334Z,160.00
2019-05-20T03:45:16.753Z,168.00
2019-05-20T03:46:16.774Z,172.00
2019-05-20T03:47:16.737Z,176.00
2019-05-20T03:48:17.334Z,184.00
2019-05-20T03:49:16.711Z,188.00
2019-05-20T03:50:16.702Z,196.00
2019-05-20T03:51:16.725Z,200.00
2019-05-20T03:52:16.704Z,204.00
2019-05-20T03:53:16.671Z,204.00
2019-05-20T03:54:16.673Z,208.00
2019-05-20T03:55:16.652Z,216.00
2019-05-20T03:56:16.668Z,220.00
2019-05-20T03:57:16.652Z,232.00
2019-05-20T03:58:16.650Z,236.00
2019-05-20T03:59:16.617Z,244.00
2019-05-20T04:00:16.613Z,256.00
2019-05-20T04:01:16.627Z,268.00
2019-05-20T04:02:16.586Z,276.00
2019-05-20T04:03:16.640Z,284.00
2019-05-20T04:04:17.546Z,300.00
2019-05-20T04:05:16.541Z,312.00
2019-05-20T04:06:16.532Z,324.00
2019-05-20T04:07:16.551Z,336.00
2019-05-20T04:08:17.325Z,352.00
2019-05-20T04:09:16.504Z,368.00
2019-05-20T04:10:16.491Z,384.00
2019-05-20T04:11:16.482Z,396.00
2019-05-20T04:12:16.495Z,412.00
2019-05-20T04:13:16.487Z,424.00
2019-05-20T04:14:16.471Z,436.00
2019-05-20T04:15:16.470Z,440.00
2019-05-20T04:16:16.421Z,444.00
2019-05-20T04:17:16.457Z,444.00
2019-05-20T04:18:16.400Z,444.00
2019-05-20T04:19:16.407Z,448.00
2019-05-20T04:20:16.388Z,448.00
2019-05-20T04:21:16.380Z,452.00
2019-05-20T04:22:16.888Z,452.00
2019-05-20T04:23:16.355Z,456.00
2019-05-20T04:24:16.347Z,460.00
2019-05-20T04:25:16.357Z,460.00
2019-05-20T04:26:16.315Z,460.00
2019-05-20T04:27:16.335Z,460.00
2019-05-20T04:28:16.304Z,456.00
2019-05-20T04:29:16.295Z,456.00
2019-05-20T04:30:18.873Z,472.00
2019-05-20T04:31:16.269Z,484.00
2019-05-20T04:32:16.282Z,504.00
2019-05-20T04:33:16.336Z,512.00
2019-05-20T04:34:16.231Z,512.00
2019-05-20T04:35:21.912Z,516.00
2019-05-20T04:36:17.209Z,508.00
2019-05-20T04:37:16.227Z,516.00
2019-05-20T04:38:16.195Z,540.00
2019-05-20T04:39:16.178Z,548.00
2019-05-20T04:40:16.169Z,560.00
2019-05-20T04:41:16.158Z,576.00
2019-05-20T04:42:17.108Z,576.00
2019-05-20T04:43:16.142Z,580.00
2019-05-20T04:44:16.129Z,576.00
2019-05-20T04:45:16.131Z,568.00
2019-05-20T04:46:16.121Z,524.00
2019-05-20T04:47:16.975Z,512.00
2019-05-20T04:48:16.878Z,508.00
2019-05-20T04:49:16.073Z,512.00
2019-05-20T04:50:16.096Z,524.00
2019-05-20T04:51:16.055Z,536.00
2019-05-20T04:52:16.071Z,548.00
2019-05-20T04:53:16.042Z,556.00
2019-05-20T04:54:16.031Z,568.00
2019-05-20T04:55:16.019Z,576.00
2019-05-20T04:56:16.019Z,580.00
2019-05-20T04:57:16.013Z,588.00
2019-05-20T04:58:15.977Z,588.00
2019-05-20T04:59:15.973Z,596.00
2019-05-20T05:00:16.033Z,600.00
2019-05-20T05:01:16.699Z,604.00
2019-05-20T05:02:15.969Z,604.00
2019-05-20T05:03:15.925Z,608.00
2019-05-20T05:04:15.915Z,608.00
2019-05-20T05:05:15.907Z,604.00
2019-05-20T05:06:15.895Z,592.00
2019-05-20T05:07:15.914Z,584.00
2019-05-20T05:08:15.867Z,572.00
2019-05-20T05:09:15.883Z,564.00
2019-05-20T05:10:15.874Z,556.00
2019-05-20T05:11:15.840Z,548.00
2019-05-20T05:12:15.854Z,548.00
2019-05-20T05:13:16.518Z,548.00
2019-05-20T05:14:15.810Z,552.00
2019-05-20T05:15:15.822Z,556.00
2019-05-20T05:16:15.783Z,560.00
2019-05-20T05:17:17.506Z,568.00
2019-05-20T05:18:15.796Z,572.00
2019-05-20T05:19:15.750Z,576.00
2019-05-20T05:20:18.469Z,584.00
2019-05-20T05:21:15.737Z,580.00
2019-05-20T05:22:15.719Z,584.00
2019-05-20T05:23:15.737Z,580.00
2019-05-20T05:24:15.701Z,580.00
2019-05-20T05:25:15.688Z,580.00
2019-05-20T05:26:15.678Z,584.00
2019-05-20T05:27:15.700Z,588.00
2019-05-20T05:28:15.709Z,604.00
2019-05-20T05:29:15.646Z,620.00
2019-05-20T05:30:15.636Z,640.00
2019-05-20T05:31:15.627Z,656.00
2019-05-20T05:32:15.651Z,668.00
2019-05-20T05:33:15.664Z,680.00
2019-05-20T05:34:15.599Z,688.00
2019-05-20T05:35:15.602Z,700.00
2019-05-20T05:36:15.586Z,712.00
2019-05-20T05:37:15.562Z,724.00
2019-05-20T05:38:16.138Z,732.00
2019-05-20T05:39:15.541Z,736.00
2019-05-20T05:40:15.561Z,732.00
2019-05-20T05:41:15.563Z,728.00
2019-05-20T05:42:15.529Z,720.00
2019-05-20T05:43:15.529Z,720.00
2019-05-20T05:44:15.490Z,720.00
2019-05-20T05:45:16.266Z,720.00
2019-05-20T05:46:16.267Z,716.00
2019-05-20T05:47:15.474Z,712.00
2019-05-20T05:48:15.478Z,712.00
2019-05-20T05:49:15.437Z,704.00
2019-05-20T05:50:15.428Z,704.00
2019-05-20T05:51:15.453Z,704.00
2019-05-20T05:52:15.413Z,708.00
2019-05-20T05:53:15.426Z,724.00
2019-05-20T05:54:15.384Z,744.00
2019-05-20T05:55:15.383Z,768.00
2019-05-20T05:56:15.406Z,792.00
2019-05-20T05:57:16.260Z,820.00
2019-05-20T05:58:15.372Z,840.00
2019-05-20T05:59:15.335Z,856.00
2019-05-20T06:00:15.322Z,868.00
2019-05-20T06:01:15.311Z,876.00
2019-05-20T06:02:15.301Z,892.00
2019-05-20T06:03:15.352Z,904.00
2019-05-20T06:04:15.280Z,924.00
2019-05-20T06:05:15.267Z,956.00
2019-05-20T06:06:15.259Z,996.00
2019-05-20T06:07:15.247Z,1048.00
2019-05-20T06:08:15.273Z,1132.00
2019-05-20T06:09:15.248Z,1248.00
2019-05-20T06:10:15.218Z,1492.00
2019-05-20T06:11:15.206Z,1612.00
2019-05-20T06:12:15.196Z,1888.00
2019-05-20T06:13:15.187Z,1840.00
2019-05-20T06:14:15.197Z,1740.00
2019-05-20T06:15:15.165Z,1788.00
2019-05-20T06:16:15.153Z,1896.00
2019-05-20T06:17:15.142Z,2224.00
2019-05-20T06:18:15.134Z,3232.00
2019-05-20T06:19:15.151Z,3504.00
2019-05-20T06:20:15.111Z,3660.00
2019-05-20T06:21:15.095Z,3060.00
2019-05-20T06:22:15.091Z,4040.00
2019-05-20T06:23:15.751Z,4140.00
2019-05-20T06:24:15.091Z,4256.00
2019-05-20T06:25:15.766Z,3900.00
2019-05-20T06:26:15.096Z,4224.00
2019-05-20T06:27:15.032Z,3704.00
2019-05-20T06:28:15.020Z,4340.00
2019-05-20T06:29:15.039Z,4440.00
2019-05-20T06:30:15.008Z,4500.00
2019-05-20T06:31:14.996Z,4428.00
2019-05-20T06:32:15.332Z,4312.00
2019-05-20T06:33:14.967Z,4164.00
2019-05-20T06:34:15.104Z,3948.00
2019-05-20T06:35:15.101Z,3884.00
2019-05-20T06:36:26.379Z,3848.00
2019-05-20T06:37:15.937Z,3844.00
2019-05-20T06:38:14.937Z,3904.00
2019-05-20T06:39:14.941Z,3836.00
2019-05-20T06:40:15.655Z,3604.00
2019-05-20T06:41:14.891Z,3580.00
2019-05-20T06:42:14.893Z,3976.00
2019-05-20T06:43:14.862Z,4092.00
2019-05-20T06:44:14.888Z,3832.00
2019-05-20T06:45:14.874Z,3964.00
2019-05-20T06:46:14.829Z,4300.00
2019-05-20T06:47:14.821Z,4140.00
2019-05-20T06:48:14.811Z,4384.00
2019-05-20T06:49:14.829Z,4296.00
2019-05-20T06:50:15.441Z,3776.00
2019-05-20T06:51:14.805Z,3720.00
2019-05-20T06:52:14.786Z,3956.00
2019-05-20T06:53:14.762Z,3604.00
2019-05-20T06:54:14.772Z,3336.00
2019-05-20T06:55:14.742Z,3196.00
2019-05-20T06:56:14.731Z,3556.00
2019-05-20T06:57:14.897Z,2728.00
2019-05-20T06:58:14.706Z,3120.00
2019-05-20T06:59:15.271Z,3428.00
2019-05-20T07:00:14.677Z,2884.00
2019-05-20T07:01:14.669Z,2316.00
2019-05-20T07:02:14.665Z,2644.00
2019-05-20T07:03:14.695Z,2992.00
2019-05-20T07:04:14.664Z,3152.00
2019-05-20T07:05:14.629Z,2640.00
2019-05-20T07:06:14.621Z,2896.00
2019-05-20T07:07:21.069Z,3252.00
2019-05-20T07:08:15.616Z,3316.00
2019-05-20T07:09:14.612Z,4264.00
2019-05-20T07:10:15.397Z,4536.00
2019-05-20T07:11:14.569Z,4612.00
2019-05-20T07:12:14.553Z,4460.00
2019-05-20T07:13:16.334Z,4456.00
2019-05-20T07:14:14.597Z,4316.00
2019-05-20T07:15:14.520Z,4084.00
2019-05-20T07:16:15.277Z,3504.00
2019-05-20T07:17:14.504Z,3352.00
2019-05-20T07:18:15.359Z,2976.00
2019-05-20T07:19:14.505Z,3076.00
2019-05-20T07:20:14.475Z,2804.00
2019-05-20T07:21:14.480Z,2668.00
2019-05-20T07:22:14.448Z,2788.00
2019-05-20T07:23:14.443Z,2452.00
2019-05-20T07:24:14.457Z,2572.00
2019-05-20T07:25:14.439Z,3048.00
2019-05-20T07:26:14.405Z,3484.00
2019-05-20T07:27:14.398Z,3012.00
2019-05-20T07:28:15.395Z,3268.00
2019-05-20T07:29:14.410Z,2944.00
2019-05-20T07:30:15.499Z,2916.00
2019-05-20T07:31:14.352Z,2848.00
2019-05-20T07:32:14.340Z,3004.00
2019-05-20T07:33:14.332Z,3280.00
2019-05-20T07:34:14.350Z,3196.00
2019-05-20T07:35:28.834Z,3448.00
2019-05-20T07:36:15.302Z,3568.00
2019-05-20T07:37:14.290Z,3720.00
2019-05-20T07:38:14.280Z,3264.00
2019-05-20T07:39:14.314Z,3216.00
2019-05-20T07:40:14.265Z,3352.00
2019-05-20T07:41:14.250Z,3732.00
2019-05-20T07:42:14.240Z,3896.00
2019-05-20T07:43:14.220Z,3900.00
2019-05-20T07:44:14.259Z,4160.00
2019-05-20T07:45:14.206Z,5272.00
2019-05-20T07:46:14.197Z,5256.00
2019-05-20T07:47:14.177Z,5768.00
2019-05-20T07:48:14.166Z,5540.00
2019-05-20T07:49:14.189Z,5416.00
2019-05-20T07:50:14.147Z,5892.00
2019-05-20T07:51:14.153Z,5320.00
2019-05-20T07:52:14.220Z,5820.00
2019-05-20T07:53:14.837Z,5664.00
2019-05-20T07:54:14.837Z,5912.00
2019-05-20T07:55:14.095Z,5764.00
2019-05-20T07:56:14.087Z,5540.00
2019-05-20T07:57:14.154Z,4984.00
2019-05-20T07:58:14.065Z,5956.00
2019-05-20T07:59:14.113Z,6092.00
2019-05-20T08:00:14.055Z,6824.00
2019-05-20T08:01:14.045Z,6880.00
2019-05-20T08:02:14.570Z,6676.00
2019-05-20T08:03:14.023Z,6492.00
2019-05-20T08:04:14.142Z,6044.00
2019-05-20T08:05:14.006Z,5584.00
2019-05-20T08:06:14.840Z,4932.00
2019-05-20T08:07:27.330Z,4636.00
2019-05-20T08:08:14.961Z,4320.00
2019-05-20T08:09:13.948Z,4012.00
2019-05-20T08:10:13.971Z,3836.00
2019-05-20T08:11:13.930Z,3804.00
2019-05-20T08:12:13.964Z,3848.00
2019-05-20T08:13:13.908Z,4052.00
2019-05-20T08:14:13.906Z,4640.00
2019-05-20T08:15:13.907Z,5936.00
2019-05-20T08:16:14.406Z,6788.00
2019-05-20T08:17:13.886Z,6472.00
2019-05-20T08:18:13.943Z,6644.00
2019-05-20T08:19:13.854Z,5524.00
2019-05-20T08:20:13.877Z,4528.00
2019-05-20T08:21:13.871Z,4872.00
2019-05-20T08:22:14.512Z,7112.00
2019-05-20T08:23:13.807Z,7516.00
2019-05-20T08:24:13.825Z,7772.00
2019-05-20T08:25:13.835Z,7240.00
2019-05-20T08:26:13.791Z,6924.00
2019-05-20T08:27:13.767Z,7008.00
2019-05-20T08:28:13.747Z,6572.00
2019-05-20T08:29:13.745Z,7688.00
2019-05-20T08:30:14.275Z,7148.00
2019-05-20T08:31:13.718Z,8024.00
2019-05-20T08:32:13.739Z,7928.00
2019-05-20T08:33:13.691Z,7572.00
2019-05-20T08:34:13.680Z,7236.00
2019-05-20T08:35:13.698Z,7628.00
2019-05-20T08:36:13.659Z,7868.00
2019-05-20T08:37:13.686Z,7592.00
2019-05-20T08:38:13.640Z,7868.00
2019-05-20T08:39:13.627Z,7828.00
2019-05-20T08:40:14.626Z,7792.00
2019-05-20T08:41:13.607Z,7820.00
2019-05-20T08:42:13.595Z,7844.00
2019-05-20T08:43:13.608Z,7836.00
2019-05-20T08:44:13.586Z,7852.00
2019-05-20T08:45:13.599Z,7860.00
2019-05-20T08:46:13.567Z,7840.00
2019-05-20T08:47:13.551Z,7876.00
2019-05-20T08:48:13.543Z,7872.00
2019-05-20T08:49:13.526Z,7904.00
2019-05-20T08:50:16.120Z,7876.00
2019-05-20T08:51:13.502Z,7916.00
2019-05-20T08:52:13.503Z,7900.00
2019-05-20T08:53:14.052Z,7940.00
2019-05-20T08:54:13.472Z,7980.00
2019-05-20T08:55:13.502Z,7956.00
2019-05-20T08:56:13.485Z,8032.00
2019-05-20T08:57:13.446Z,8028.00
2019-05-20T08:58:14.090Z,8044.00
2019-05-20T08:59:13.417Z,8072.00
2019-05-20T09:00:13.432Z,8116.00
2019-05-20T09:01:13.401Z,8124.00
2019-05-20T09:02:13.407Z,8160.00
2019-05-20T09:03:13.370Z,8152.00
2019-05-20T09:04:13.371Z,8196.00
2019-05-20T09:05:13.377Z,8236.00
2019-05-20T09:06:13.380Z,8300.00
2019-05-20T09:07:13.339Z,8348.00
2019-05-20T09:08:13.326Z,8316.00
2019-05-20T09:09:13.307Z,8376.00
2019-05-20T09:10:14.275Z,8480.00
2019-05-20T09:11:13.298Z,8512.00
2019-05-20T09:12:13.315Z,8628.00
2019-05-20T09:13:14.085Z,8720.00
2019-05-20T09:14:13.312Z,8760.00
2019-05-20T09:15:14.084Z,8896.00
2019-05-20T09:16:14.088Z,8932.00
2019-05-20T09:17:13.244Z,9024.00
2019-05-20T09:18:13.235Z,9088.00
2019-05-20T09:19:13.212Z,8592.00
2019-05-20T09:20:13.263Z,7736.00
2019-05-20T09:21:13.422Z,8608.00
2019-05-20T09:22:13.179Z,9488.00
2019-05-20T09:23:13.169Z,9644.00
2019-05-20T09:24:13.159Z,9760.00
2019-05-20T09:25:13.275Z,9972.00
2019-05-20T09:26:13.144Z,8512.00
2019-05-20T09:27:13.121Z,7500.00
2019-05-20T09:28:13.135Z,7452.00
2019-05-20T09:29:13.107Z,8940.00
2019-05-20T09:30:13.101Z,8276.00
2019-05-20T09:31:13.301Z,10104.00
2019-05-20T09:32:13.077Z,7800.00
2019-05-20T09:33:13.070Z,8100.00
2019-05-20T09:34:13.090Z,8632.00
2019-05-20T09:35:13.045Z,8644.00
2019-05-20T09:36:13.075Z,8452.00
2019-05-20T09:37:13.045Z,8624.00
2019-05-20T09:38:20.394Z,9548.00
2019-05-20T09:39:14.002Z,9084.00
2019-05-20T09:40:12.986Z,10620.00
2019-05-20T09:41:13.005Z,10208.00
2019-05-20T09:42:12.980Z,9824.00
2019-05-20T09:43:12.959Z,10352.00
2019-05-20T09:44:13.584Z,9836.00
2019-05-20T09:45:12.946Z,10208.00
2019-05-20T09:46:13.024Z,11200.00
2019-05-20T09:47:12.916Z,11900.00
2019-05-20T09:48:12.903Z,11956.00
2019-05-20T09:49:12.893Z,12156.00
2019-05-20T09:50:12.890Z,8916.00
2019-05-20T09:51:12.926Z,7360.00
2019-05-20T09:52:13.681Z,10268.00
2019-05-20T09:53:12.954Z,11892.00
2019-05-20T09:54:12.842Z,11100.00
2019-05-20T09:55:13.680Z,7388.00
2019-05-20T09:56:12.853Z,9220.00
2019-05-20T09:57:12.811Z,10612.00
2019-05-20T09:58:12.804Z,6844.00
2019-05-20T09:59:16.369Z,9132.00
2019-05-20T10:00:13.579Z,5936.00
2019-05-20T10:01:12.796Z,7768.00
2019-05-20T10:02:12.759Z,9652.00
2019-05-20T10:03:12.748Z,7528.00
2019-05-20T10:04:12.759Z,7064.00
2019-05-20T10:05:13.637Z,7348.00
2019-05-20T10:06:12.747Z,10020.00
2019-05-20T10:07:12.706Z,7136.00
2019-05-20T10:08:12.697Z,7188.00
2019-05-20T10:09:12.692Z,8872.00
2019-05-20T10:10:12.675Z,6708.00
2019-05-20T10:11:12.962Z,6116.00
2019-05-20T10:12:12.655Z,6032.00
2019-05-20T10:13:13.328Z,6796.00
2019-05-20T10:14:12.669Z,7000.00
2019-05-20T10:15:12.625Z,7032.00
2019-05-20T10:16:12.645Z,7048.00
2019-05-20T10:17:12.602Z,6996.00
2019-05-20T10:18:12.599Z,7496.00
2019-05-20T10:19:12.583Z,5976.00
2019-05-20T10:20:12.592Z,5812.00
2019-05-20T10:21:12.562Z,5508.00
2019-05-20T10:22:12.572Z,5520.00
2019-05-20T10:23:15.813Z,5848.00
2019-05-20T10:24:12.548Z,6008.00
2019-05-20T10:25:12.522Z,6148.00
2019-05-20T10:26:12.536Z,7180.00
2019-05-20T10:27:12.565Z,6592.00
2019-05-20T10:28:12.490Z,6148.00
2019-05-20T10:29:12.478Z,5852.00
2019-05-20T10:30:12.488Z,5196.00
2019-05-20T10:31:13.299Z,4676.00
2019-05-20T10:32:12.469Z,4448.00
2019-05-20T10:33:12.438Z,4456.00
2019-05-20T10:34:12.430Z,4672.00
2019-05-20T10:35:12.426Z,4912.00
2019-05-20T10:36:12.407Z,4612.00
2019-05-20T10:37:12.416Z,4416.00
2019-05-20T10:38:12.420Z,4636.00
2019-05-20T10:39:12.375Z,4808.00
2019-05-20T10:40:12.363Z,4984.00
2019-05-20T10:41:12.362Z,5048.00
2019-05-20T10:42:12.364Z,5208.00
2019-05-20T10:43:12.340Z,5280.00
2019-05-20T10:44:12.315Z,5184.00
2019-05-20T10:45:12.311Z,4792.00
2019-05-20T10:46:12.301Z,4992.00
2019-05-20T10:47:12.313Z,5340.00
2019-05-20T10:48:12.311Z,5848.00
2019-05-20T10:49:12.263Z,5600.00
2019-05-20T10:50:12.253Z,5340.00
2019-05-20T10:51:12.251Z,5316.00
2019-05-20T10:52:12.262Z,5352.00
2019-05-20T10:53:12.253Z,5452.00
2019-05-20T10:54:12.210Z,5292.00
2019-05-20T10:55:12.206Z,4640.00
2019-05-20T10:56:13.333Z,4440.00
2019-05-20T10:57:12.540Z,4772.00
2019-05-20T10:58:12.759Z,5032.00
2019-05-20T10:59:12.565Z,5140.00
2019-05-20T11:00:12.158Z,5444.00
2019-05-20T11:01:12.148Z,5688.00
2019-05-20T11:02:12.158Z,5028.00
2019-05-20T11:03:12.127Z,4972.00
2019-05-20T11:04:12.107Z,4924.00
2019-05-20T11:05:12.108Z,5104.00
2019-05-20T11:06:12.380Z,5052.00
2019-05-20T11:07:12.105Z,4640.00
2019-05-20T11:08:12.063Z,4112.00
2019-05-20T11:09:14.431Z,3888.00
2019-05-20T11:10:12.046Z,3888.00
2019-05-20T11:11:14.484Z,3996.00
2019-05-20T11:12:12.051Z,3744.00
2019-05-20T11:13:12.015Z,3764.00
2019-05-20T11:14:12.854Z,4404.00
2019-05-20T11:15:11.993Z,4768.00
2019-05-20T11:16:11.982Z,5092.00
2019-05-20T11:17:15.037Z,5380.00
2019-05-20T11:18:11.962Z,5360.00
2019-05-20T11:19:11.952Z,4892.00
2019-05-20T11:20:11.944Z,4688.00
2019-05-20T11:21:11.931Z,4680.00
2019-05-20T11:22:11.940Z,4772.00
2019-05-20T11:23:12.800Z,4812.00
2019-05-20T11:24:11.897Z,4832.00
2019-05-20T11:25:11.890Z,4900.00
2019-05-20T11:26:11.871Z,4948.00
2019-05-20T11:27:11.890Z,4900.00
2019-05-20T11:28:12.260Z,4660.00
2019-05-20T11:29:11.902Z,4340.00
2019-05-20T11:30:11.837Z,4072.00
2019-05-20T11:31:12.330Z,3912.00
2019-05-20T11:32:11.844Z,3828.00
2019-05-20T11:33:11.806Z,3788.00
2019-05-20T11:34:12.343Z,3796.00
2019-05-20T11:35:11.777Z,3848.00
2019-05-20T11:36:11.773Z,3972.00
2019-05-20T11:37:11.806Z,4216.00
2019-05-20T11:38:11.851Z,4596.00
2019-05-20T11:39:11.762Z,4592.00
2019-05-20T11:40:12.468Z,4740.00
2019-05-20T11:41:11.713Z,4920.00
2019-05-20T11:42:11.709Z,5212.00
2019-05-20T11:43:11.742Z,5724.00
2019-05-20T11:44:12.459Z,5500.00
2019-05-20T11:45:11.676Z,5736.00
2019-05-20T11:46:11.663Z,5804.00
2019-05-20T11:47:11.650Z,6080.00
2019-05-20T11:48:11.671Z,6068.00
2019-05-20T11:49:11.635Z,5420.00
2019-05-20T11:50:12.430Z,5236.00
2019-05-20T11:51:11.620Z,5316.00
2019-05-20T11:52:11.599Z,5396.00
2019-05-20T11:53:11.619Z,5712.00
2019-05-20T11:54:11.589Z,5688.00
2019-05-20T11:55:12.545Z,5920.00
2019-05-20T11:56:12.111Z,5472.00
2019-05-20T11:57:11.548Z,5224.00
2019-05-20T11:58:15.740Z,5176.00
2019-05-20T11:59:11.526Z,4808.00
2019-05-20T12:00:11.517Z,4056.00
2019-05-20T12:01:11.506Z,3456.00
2019-05-20T12:02:12.348Z,2920.00
2019-05-20T12:03:11.508Z,2528.00
2019-05-20T12:04:11.477Z,2316.00
2019-05-20T12:05:11.494Z,2204.00
2019-05-20T12:06:11.487Z,2112.00
2019-05-20T12:07:11.443Z,2036.00
2019-05-20T12:08:11.464Z,1928.00
2019-05-20T12:09:11.413Z,1796.00
2019-05-20T12:10:11.416Z,1596.00
2019-05-20T12:11:11.404Z,1300.00
2019-05-20T12:12:11.385Z,996.00
2019-05-20T12:13:11.459Z,788.00
2019-05-20T12:14:11.370Z,684.00
2019-05-20T12:15:11.352Z,644.00
2019-05-20T12:16:11.342Z,696.00
2019-05-20T12:17:11.337Z,772.00
2019-05-20T12:18:11.350Z,848.00
2019-05-20T12:19:11.340Z,908.00
2019-05-20T12:20:12.819Z,976.00
2019-05-20T12:21:11.293Z,1052.00
2019-05-20T12:22:11.302Z,1132.00
2019-05-20T12:23:11.299Z,1204.00
2019-05-20T12:24:11.259Z,1280.00
2019-05-20T12:25:11.257Z,1348.00
2019-05-20T12:26:11.237Z,1388.00
2019-05-20T12:27:11.227Z,1408.00
2019-05-20T12:28:11.247Z,1424.00